Time;durP1;ratioP1;P1;durP2;ratioP2;P2;SDS_P1;SDS_P2;PMS_P1;PMS_P2;Temp;Humidity;BMP_temperature;BMP_pressure;BME280_temperature;BME280_humidity;BME280_pressure;Samples;Min_cycle;Max_cycle;Signal;HPM_P1;HPM_P2
2022/04/29 00:01:26;;;;;;;;;;;;;;;;;;5081732;28;19960;-76
2022/04/29 00:03:53;;;;;;;;;;;;;;;;;;5075696;28;19923;-76
2022/04/29 00:06:18;;;;;;;;;;;;;;;;;;5075688;28;19924;-76
2022/04/29 00:08:44;;;;;;;;;;;;;;;;;;5075643;28;19923;-76
2022/04/29 00:11:09;;;;;;;;;;;;;;;;;;5074336;28;19925;-77
2022/04/29 00:13:35;;;;;;;;;;;;;;;;;;5074425;28;20279;-77
2022/04/29 00:16:00;;;;;;;;;;;;;;;;;;5074345;28;19993;-76
2022/04/29 00:18:26;;;;;;;;;;;;;;;;;;5075329;28;20445;-76
2022/04/29 00:20:51;;;;;;;;;;;;;;;;;;5094557;28;19939;-76
2022/04/29 00:23:18;;;;;;;;;;;;;;;;;;5095661;28;19916;-76
2022/04/29 00:25:43;;;;;;;;;;;;;;;;;;5095226;28;19920;-76
2022/04/29 00:28:08;;;;;;;;;;;;;;;;;;5095623;28;19923;-76
2022/04/29 00:30:34;;;;;;;;;;;;;;;;;;5095515;28;19923;-77
2022/04/29 00:33:00;;;;;;;;;;;;;;;;;;5078197;28;19916;-77
2022/04/29 00:35:26;;;;;;;;;;;;;;;;;;5072662;28;20001;-77
2022/04/29 00:37:52;;;;;;;;;;;;;;;;;;5073867;28;19923;-76
2022/04/29 00:40:19;;;;;;;;;;;;;;;;;;5073940;28;19924;-76
2022/04/29 00:42:45;;;;;;;;;;;;;;;;;;5073683;28;20377;-76
2022/04/29 00:45:11;;;;;;;;;;;;;;;;;;5056456;28;19920;-77
2022/04/29 00:47:37;;;;;;;;;;;;;;;;;;5073534;28;19923;-77
2022/04/29 00:50:02;;;;;;;;;;;;;;;;;;5073585;28;20335;-77
2022/04/29 00:52:29;;;;;;;;;;;;;;;;;;5073255;28;19970;-76
2022/04/29 00:54:57;;;;;;;;;;;;;;;;;;5073988;28;19927;-76
2022/04/29 00:57:25;;;;;;;;;;;;;;;;;;5074490;28;20361;-77
2022/04/29 01:00:08;;;;;;;;;;;;;;;;;;5094377;28;19915;-76
2022/04/29 01:02:36;;;;;;;;;;;;;;;;;;5115321;28;19951;-77
2022/04/29 01:05:05;;;;;;;;;;;;;;;;;;5114212;28;20415;-76
2022/04/29 01:07:31;;;;;;;;;;;;;;;;;;5101778;28;19922;-75
2022/04/29 01:09:56;;;;;;;;;;;;;;;;;;5074353;28;19923;-77
2022/04/29 01:12:25;;;;;;;;;;;;;;;;;;5074051;28;20289;-77
2022/04/29 01:14:52;;;;;;;;;;;;;;;;;;5074261;28;19939;-77
2022/04/29 01:17:18;;;;;;;;;;;;;;;;;;5073022;28;19991;-76
2022/04/29 01:19:44;;;;;;;;;;;;;;;;;;5086013;28;20337;-76
2022/04/29 01:22:10;;;;;;;;;;;;;;;;;;5114622;28;19934;-76
2022/04/29 01:24:36;;;;;;;;;;;;;;;;;;5096561;28;20258;-76
2022/04/29 01:27:10;;;;;;;;;;;;;;;;;;5113247;28;19920;-77
2022/04/29 01:29:37;;;;;;;;;;;;;;;;;;5096645;28;20385;-77
2022/04/29 01:32:02;;;;;;;;;;;;;;;;;;5113639;28;19916;-76
2022/04/29 01:34:28;;;;;;;;;;;;;;;;;;5106983;28;19920;-76
2022/04/29 01:36:53;;;;;;;;;;;;;;;;;;5075912;28;19942;-76
2022/04/29 01:39:18;;;;;;;;;;;;;;;;;;5094382;28;19920;-76
2022/04/29 01:41:44;;;;;;;;;;;;;;;;;;5092984;28;19917;-77
2022/04/29 01:44:09;;;;;;;;;;;;;;;;;;5093760;28;20018;-76
2022/04/29 01:46:35;;;;;;;;;;;;;;;;;;5092601;28;19963;-76
2022/04/29 01:49:18;;;;;;;;;;;;;;;;;;5093977;28;19927;-76
2022/04/29 01:52:04;;;;;;;;;;;;;;;;;;5093448;28;19920;-76
2022/04/29 01:54:30;;;;;;;;;;;;;;;;;;5092518;28;19920;-76
2022/04/29 01:56:57;;;;;;;;;;;;;;;;;;5093496;28;21308;-76
2022/04/29 01:59:22;;;;;;;;;;;;;;;;;;5092676;28;19916;-77
2022/04/29 02:02:03;;;;;;;;;;;;;;;;;;5092854;28;20373;-76
2022/04/29 02:04:28;;;;;;;;;;;;;;;;;;5092621;28;20012;-77
2022/04/29 02:06:53;;;;;;;;;;;;;;;;;;5077153;28;20003;-77
2022/04/29 02:09:20;;;;;;;;;;;;;;;;;;5072452;28;19916;-76
2022/04/29 02:12:04;;;;;;;;;;;;;;;;;;5072410;28;19923;-77
2022/04/29 02:15:02;;;;;;;;;;;;;;;;;;5050290;28;19920;-76
2022/04/29 02:17:36;;;;;;;;;;;;;;;;;;5072106;28;19931;-76
2022/04/29 02:20:02;;;;;;;;;;;;;;;;;;5072169;28;19917;-76
2022/04/29 02:22:27;;;;;;;;;;;;;;;;;;5071655;28;20376;-76
2022/04/29 02:24:53;;;;;;;;;;;;;;;;;;5085915;28;20300;-76
2022/04/29 02:27:18;;;;;;;;;;;;;;;;;;5113865;28;19920;-76
2022/04/29 02:29:43;;;;;;;;;;;;;;;;;;5112677;28;19968;-76
2022/04/29 02:32:12;;;;;;;;;;;;;;;;;;5092607;28;19917;-75
2022/04/29 02:34:40;;;;;;;;;;;;;;;;;;5089055;28;19966;-76
2022/04/29 02:37:05;;;;;;;;;;;;;;;;;;5072100;28;19916;-77
2022/04/29 02:39:31;;;;;;;;;;;;;;;;;;5055379;28;19924;-76
2022/04/29 02:41:57;;;;;;;;;;;;;;;;;;5072239;28;19923;-78
2022/04/29 02:44:23;;;;;;;;;;;;;;;;;;5073367;28;19917;-76
2022/04/29 02:47:06;;;;;;;;;;;;;;;;;;5071877;28;19967;-77
2022/04/29 02:49:32;;;;;;;;;;;;;;;;;;5073393;28;19923;-77
2022/04/29 02:51:57;;;;;;;;;;;;;;;;;;5071821;28;20003;-76
2022/04/29 02:54:23;;;;;;;;;;;;;;;;;;5071898;28;19990;-75
2022/04/29 02:56:51;;;;;;;;;;;;;;;;;;5072428;28;19927;-77
2022/04/29 02:59:30;;;;;;;;;;;;;;;;;;5090403;28;19917;-76
2022/04/29 03:01:56;;;;;;;;;;;;;;;;;;5083942;28;19962;-76
2022/04/29 03:04:22;;;;;;;;;;;;;;;;;;5095343;28;19916;-76
2022/04/29 03:06:47;;;;;;;;;;;;;;;;;;5096789;28;20430;-75
2022/04/29 03:09:12;;;;;;;;;;;;;;;;;;5096507;28;19923;-75
2022/04/29 03:11:38;;;;;;;;;;;;;;;;;;5097059;28;19920;-75
2022/04/29 03:14:04;;;;;;;;;;;;;;;;;;5095577;28;20004;-75
2022/04/29 03:16:29;;;;;;;;;;;;;;;;;;5095585;28;20262;-75
2022/04/29 03:18:56;;;;;;;;;;;;;;;;;;5078397;28;19916;-75
2022/04/29 03:21:21;;;;;;;;;;;;;;;;;;5095263;28;20419;-75
2022/04/29 03:23:47;;;;;;;;;;;;;;;;;;5095406;28;19955;-75
2022/04/29 03:26:12;;;;;;;;;;;;;;;;;;5095290;28;19971;-75
2022/04/29 03:28:39;;;;;;;;;;;;;;;;;;5092952;28;20004;-75
2022/04/29 03:31:05;;;;;;;;;;;;;;;;;;5091977;28;20389;-75
2022/04/29 03:33:51;;;;;;;;;;;;;;;;;;5062295;28;19924;-75
2022/04/29 03:36:16;;;;;;;;;;;;;;;;;;5092716;28;19916;-75
2022/04/29 03:38:44;;;;;;;;;;;;;;;;;;5094015;28;20366;-75
2022/04/29 03:41:12;;;;;;;;;;;;;;;;;;5092722;28;19923;-75
2022/04/29 03:43:38;;;;;;;;;;;;;;;;;;5094538;28;19920;-75
2022/04/29 03:46:07;;;;;;;;;;;;;;;;;;5094916;28;19920;-75
2022/04/29 03:51:43;;;;;;;;;;;;;;;;;;5094062;28;19916;-75
2022/04/29 03:54:09;;;;;;;;;;;;;;;;;;5094775;28;19966;-75
2022/04/29 03:56:40;;;;;;;;;;;;;;;;;;5094169;28;19916;-75
2022/04/29 03:59:06;;;;;;;;;;;;;;;;;;5094609;28;19923;-75
2022/04/29 04:01:33;;;;;;;;;;;;;;;;;;5093926;28;20363;-75
2022/04/29 04:04:05;;;;;;;;;;;;;;;;;;5095015;28;19947;-75
2022/04/29 04:09:16;;;;;;;;;;;;;;;;;;5094311;28;19916;-75
2022/04/29 04:11:41;;;;;;;;;;;;;;;;;;5094409;28;19969;-75
2022/04/29 04:14:08;;;;;;;;;;;;;;;;;;5077835;28;19920;-75
2022/04/29 04:16:40;;;;;;;;;;;;;;;;;;5078440;28;19916;-76
2022/04/29 04:19:06;;;;;;;;;;;;;;;;;;5095662;28;19962;-75
2022/04/29 04:21:31;;;;;;;;;;;;;;;;;;5093475;28;20045;-75
2022/04/29 04:23:57;;;;;;;;;;;;;;;;;;5094405;28;19930;-75
2022/04/29 04:26:23;;;;;;;;;;;;;;;;;;5094099;28;19920;-75
2022/04/29 04:28:50;;;;;;;;;;;;;;;;;;5094119;28;19927;-76
2022/04/29 04:31:15;;;;;;;;;;;;;;;;;;5093158;28;19916;-76
2022/04/29 04:33:48;;;;;;;;;;;;;;;;;;5094262;28;20248;-75
2022/04/29 04:36:14;;;;;;;;;;;;;;;;;;5093918;28;19923;-76
2022/04/29 04:38:39;;;;;;;;;;;;;;;;;;5095072;28;19923;-75
2022/04/29 04:41:08;;;;;;;;;;;;;;;;;;5093050;28;19916;-76
2022/04/29 04:43:35;;;;;;;;;;;;;;;;;;5094073;28;19923;-75
2022/04/29 04:46:03;;;;;;;;;;;;;;;;;;5095046;28;19920;-75
2022/04/29 04:48:28;;;;;;;;;;;;;;;;;;5093932;28;19927;-76
2022/04/29 04:51:11;;;;;;;;;;;;;;;;;;5095293;28;19916;-75
2022/04/29 04:53:41;;;;;;;;;;;;;;;;;;5093840;28;20007;-76
2022/04/29 04:56:07;;;;;;;;;;;;;;;;;;5093460;28;20007;-75
2022/04/29 04:58:34;;;;;;;;;;;;;;;;;;5093398;28;20430;-77
2022/04/29 05:01:00;;;;;;;;;;;;;;;;;;5093911;28;19916;-76
2022/04/29 05:04:04;;;;;;;;;;;;;;;;;;5094746;28;20038;-75
2022/04/29 05:06:50;;;;;;;;;;;;;;;;;;5094365;28;19960;-75
2022/04/29 05:09:16;;;;;;;;;;;;;;;;;;5093379;28;20327;-76
2022/04/29 05:11:41;;;;;;;;;;;;;;;;;;5093631;28;20026;-75
2022/04/29 05:14:13;;;;;;;;;;;;;;;;;;5093335;28;20014;-75
2022/04/29 05:16:39;;;;;;;;;;;;;;;;;;5093235;28;19928;-75
2022/04/29 05:19:23;;;;;;;;;;;;;;;;;;5094675;28;19961;-75
2022/04/29 05:21:48;;;;;;;;;;;;;;;;;;5094638;28;19920;-77
2022/04/29 05:24:14;;;;;;;;;;;;;;;;;;5096810;28;19923;-77
2022/04/29 05:27:02;;;;;;;;;;;;;;;;;;5094073;28;19920;-76
2022/04/29 05:30:06;;;;;;;;;;;;;;;;;;5094983;28;19923;-77
2022/04/29 05:33:03;;;;;;;;;;;;;;;;;;5061012;28;19916;-77
2022/04/29 05:35:55;;;;;;;;;;;;;;;;;;5070691;28;20324;-76
2022/04/29 05:44:18;;;;;;;;;;;;;;;;;;5094214;28;20395;-77
2022/04/29 05:46:43;;;;;;;;;;;;;;;;;;5093981;28;19920;-75
2022/04/29 05:49:08;;;;;;;;;;;;;;;;;;5091927;28;20006;-76
2022/04/29 05:51:38;;;;;;;;;;;;;;;;;;5091796;28;19920;-76
2022/04/29 05:54:04;;;;;;;;;;;;;;;;;;5091789;28;19927;-76
2022/04/29 05:56:29;;;;;;;;;;;;;;;;;;5092328;28;20381;-77
2022/04/29 05:58:55;;;;;;;;;;;;;;;;;;5092544;28;19916;-77
2022/04/29 06:01:43;;;;;;;;;;;;;;;;;;5096227;28;20334;-76
2022/04/29 06:04:09;;;;;;;;;;;;;;;;;;5092274;28;20010;-76
2022/04/29 06:06:36;;;;;;;;;;;;;;;;;;5091806;28;19920;-77
2022/04/29 06:09:01;;;;;;;;;;;;;;;;;;5092620;28;19923;-76
2022/04/29 06:11:27;;;;;;;;;;;;;;;;;;5075679;28;20060;-75
2022/04/29 06:13:53;;;;;;;;;;;;;;;;;;5092340;28;19960;-75
2022/04/29 06:16:37;;;;;;;;;;;;;;;;;;5093812;28;19950;-75
2022/04/29 06:19:21;;;;;;;;;;;;;;;;;;5093882;28;20307;-75
2022/04/29 06:22:17;;;;;;;;;;;;;;;;;;5092289;28;20015;-76
2022/04/29 06:24:45;;;;;;;;;;;;;;;;;;5092427;28;19916;-75
2022/04/29 06:27:10;;;;;;;;;;;;;;;;;;5092225;28;19927;-75
2022/04/29 06:29:36;;;;;;;;;;;;;;;;;;5091584;28;19912;-75
2022/04/29 06:32:04;;;;;;;;;;;;;;;;;;5092885;28;19970;-75
2022/04/29 06:35:02;;;;;;;;;;;;;;;;;;5063469;28;19916;-76
2022/04/29 06:37:27;;;;;;;;;;;;;;;;;;5096268;28;20008;-76
2022/04/29 06:40:13;;;;;;;;;;;;;;;;;;5097472;28;20007;-75
2022/04/29 06:42:50;;;;;;;;;;;;;;;;;;5096306;28;19923;-77
2022/04/29 06:45:44;;;;;;;;;;;;;;;;;;5042283;28;19975;-76
2022/04/29 06:48:39;;;;;;;;;;;;;;;;;;5097236;28;19920;-76
2022/04/29 06:51:42;;;;;;;;;;;;;;;;;;5055266;28;19967;-77
2022/04/29 06:54:14;;;;;;;;;;;;;;;;;;5053862;28;19973;-76
2022/04/29 06:56:41;;;;;;;;;;;;;;;;;;5076451;28;20447;-77
2022/04/29 06:59:07;;;;;;;;;;;;;;;;;;5095894;28;19916;-77
2022/04/29 07:01:36;;;;;;;;;;;;;;;;;;5079053;28;20270;-77
2022/04/29 07:04:01;;;;;;;;;;;;;;;;;;5095835;28;19930;-76
2022/04/29 07:06:27;;;;;;;;;;;;;;;;;;5094564;28;20329;-77
2022/04/29 07:08:53;;;;;;;;;;;;;;;;;;5097145;28;19939;-77
2022/04/29 07:11:37;;;;;;;;;;;;;;;;;;5098585;28;19923;-82
2022/04/29 07:14:07;;;;;;;;;;;;;;;;;;5098694;28;19916;-81
2022/04/29 07:16:49;;;;;;;;;;;;;;;;;;5098238;28;19916;-80
2022/04/29 07:19:25;;;;;;;;;;;;;;;;;;5098852;28;19979;-82
2022/04/29 07:21:51;;;;;;;;;;;;;;;;;;5081224;28;19967;-77
2022/04/29 07:24:16;;;;;;;;;;;;;;;;;;5078200;28;19916;-80
2022/04/29 07:26:42;;;;;;;;;;;;;;;;;;5081401;28;19920;-81
2022/04/29 07:29:10;;;;;;;;;;;;;;;;;;5079829;28;19970;-81
2022/04/29 07:31:41;;;;;;;;;;;;;;;;;;5086936;28;19917;-83
2022/04/29 07:42:59;;;;;;;;;;;;;;;;;;5081117;28;19924;-79
2022/04/29 07:45:24;;;;;;;;;;;;;;;;;;5081352;28;19995;-79
2022/04/29 07:48:09;;;;;;;;;;;;;;;;;;5098499;28;20311;-79
2022/04/29 07:50:35;;;;;;;;;;;;;;;;;;5102648;28;19916;-81
2022/04/29 07:53:01;;;;;;;;;;;;;;;;;;5115164;28;20338;-78
2022/04/29 07:55:27;;;;;;;;;;;;;;;;;;5121830;28;19968;-80
2022/04/29 07:57:53;;;;;;;;;;;;;;;;;;5105783;28;20006;-80
2022/04/29 08:00:18;;;;;;;;;;;;;;;;;;5105412;28;19919;-83
2022/04/29 08:02:43;;;;;;;;;;;;;;;;;;5104855;28;19916;-84
2022/04/29 08:05:12;;;;;;;;;;;;;;;;;;5101549;28;20437;-79
2022/04/29 08:07:38;;;;;;;;;;;;;;;;;;5123225;28;19950;-82
2022/04/29 08:10:04;;;;;;;;;;;;;;;;;;5109037;28;19916;-81
2022/04/29 08:12:29;;;;;;;;;;;;;;;;;;5108641;28;19995;-80
2022/04/29 08:15:14;;;;;;;;;;;;;;;;;;5078580;28;19984;-82
2022/04/29 08:17:49;;;;;;;;;;;;;;;;;;5077254;28;19924;-83
2022/04/29 08:20:14;;;;;;;;;;;;;;;;;;5077244;28;19917;-81
2022/04/29 08:22:42;;;;;;;;;;;;;;;;;;5077587;28;19916;-82
2022/04/29 08:25:08;;;;;;;;;;;;;;;;;;5076714;28;19920;-83
2022/04/29 08:27:34;;;;;;;;;;;;;;;;;;5076487;28;19916;-82
2022/04/29 08:29:59;;;;;;;;;;;;;;;;;;5078093;28;19970;-82
2022/04/29 08:32:25;;;;;;;;;;;;;;;;;;5079133;28;19916;-84
2022/04/29 08:34:52;;;;;;;;;;;;;;;;;;5090039;28;19915;-84
2022/04/29 08:37:21;;;;;;;;;;;;;;;;;;5120922;28;19922;-80
2022/04/29 08:39:48;;;;;;;;;;;;;;;;;;5117579;28;19920;-82
2022/04/29 08:42:18;;;;;;;;;;;;;;;;;;5100844;28;19916;-80
2022/04/29 08:44:43;;;;;;;;;;;;;;;;;;5116328;28;19923;-78
2022/04/29 08:47:28;;;;;;;;;;;;;;;;;;5099510;28;19969;-80
2022/04/29 08:50:15;;;;;;;;;;;;;;;;;;5097512;28;20289;-80
2022/04/29 08:52:41;;;;;;;;;;;;;;;;;;5098653;28;19960;-81
2022/04/29 09:00:41;;;;;;;;;;;;;;;;;;5076473;28;19916;-82
2022/04/29 09:03:13;;;;;;;;;;;;;;;;;;5077689;28;19916;-82
2022/04/29 09:05:39;;;;;;;;;;;;;;;;;;5077638;28;19967;-81
2022/04/29 09:08:05;;;;;;;;;;;;;;;;;;5077339;28;19921;-81
2022/04/29 09:10:34;;;;;;;;;;;;;;;;;;5077537;28;19932;-82
2022/04/29 09:13:09;;;;;;;;;;;;;;;;;;5076833;28;19920;-82
2022/04/29 09:15:36;;;;;;;;;;;;;;;;;;5079050;28;20003;-80
2022/04/29 09:18:04;;;;;;;;;;;;;;;;;;5078411;28;19920;-81
2022/04/29 09:20:29;;;;;;;;;;;;;;;;;;5078794;28;19974;-80
2022/04/29 09:22:55;;;;;;;;;;;;;;;;;;5078672;28;19917;-80
2022/04/29 09:25:39;;;;;;;;;;;;;;;;;;5078560;28;20343;-81
2022/04/29 09:28:23;;;;;;;;;;;;;;;;;;5078585;28;19962;-80
2022/04/29 09:31:03;;;;;;;;;;;;;;;;;;5087140;28;19938;-80
2022/04/29 09:33:54;;;;;;;;;;;;;;;;;;5100168;28;19938;-79
2022/04/29 09:36:39;;;;;;;;;;;;;;;;;;5088119;28;19921;-80
2022/04/29 09:41:55;;;;;;;;;;;;;;;;;;5078387;28;19978;-80
2022/04/29 09:44:30;;;;;;;;;;;;;;;;;;5094346;28;19916;-80
2022/04/29 09:46:55;;;;;;;;;;;;;;;;;;5098487;28;19920;-81
2022/04/29 09:49:25;;;;;;;;;;;;;;;;;;5098649;28;20015;-84
2022/04/29 09:51:51;;;;;;;;;;;;;;;;;;5098321;28;19916;-80
2022/04/29 09:54:17;;;;;;;;;;;;;;;;;;5098228;28;20502;-80
2022/04/29 09:56:44;;;;;;;;;;;;;;;;;;5097849;28;19923;-79
2022/04/29 09:59:09;;;;;;;;;;;;;;;;;;5097671;28;19924;-80
2022/04/29 10:01:35;;;;;;;;;;;;;;;;;;5099657;28;19923;-82
2022/04/29 10:04:00;;;;;;;;;;;;;;;;;;5097715;28;19916;-80
2022/04/29 10:06:26;;;;;;;;;;;;;;;;;;5090248;28;19920;-78
2022/04/29 10:08:52;;;;;;;;;;;;;;;;;;5074597;28;20019;-76
2022/04/29 10:11:21;;;;;;;;;;;;;;;;;;5074141;28;19955;-77
2022/04/29 10:13:47;;;;;;;;;;;;;;;;;;5073673;28;20007;-78
2022/04/29 10:16:18;;;;;;;;;;;;;;;;;;5073192;28;19966;-78
2022/04/29 10:22:06;;;;;;;;;;;;;;;;;;5065076;28;20003;-76
2022/04/29 10:24:31;;;;;;;;;;;;;;;;;;5073544;28;20311;-77
2022/04/29 10:26:57;;;;;;;;;;;;;;;;;;5073676;28;19920;-76
2022/04/29 10:29:22;;;;;;;;;;;;;;;;;;5073602;28;19923;-77
2022/04/29 10:32:07;;;;;;;;;;;;;;;;;;5081292;28;20274;-78
2022/04/29 10:34:34;;;;;;;;;;;;;;;;;;5094558;28;19927;-78
2022/04/29 10:37:09;;;;;;;;;;;;;;;;;;5094679;28;19919;-77
2022/04/29 10:39:34;;;;;;;;;;;;;;;;;;5093527;28;20007;-77
2022/04/29 10:42:01;;;;;;;;;;;;;;;;;;5096756;28;20360;-80
2022/04/29 10:44:27;;;;;;;;;;;;;;;;;;5097504;28;19920;-77
2022/04/29 10:46:52;;;;;;;;;;;;;;;;;;5099793;28;19964;-79
2022/04/29 10:49:24;;;;;;;;;;;;;;;;;;5098644;28;19916;-79
2022/04/29 10:52:28;;;;;;;;;;;;;;;;;;5036602;28;20011;-79
2022/04/29 10:55:05;;;;;;;;;;;;;;;;;;5028620;28;19960;-82
2022/04/29 10:57:49;;;;;;;;;;;;;;;;;;5082836;28;19998;-80
2022/04/29 11:00:22;;;;;;;;;;;;;;;;;;5101560;28;19916;-81
2022/04/29 11:02:48;;;;;;;;;;;;;;;;;;5103742;28;19916;-81
2022/04/29 11:05:32;;;;;;;;;;;;;;;;;;5105103;28;19916;-81
2022/04/29 11:08:06;;;;;;;;;;;;;;;;;;5100652;28;19951;-80
2022/04/29 11:10:52;;;;;;;;;;;;;;;;;;5079358;28;19920;-79
2022/04/29 11:13:20;;;;;;;;;;;;;;;;;;5076871;28;19923;-80
2022/04/29 11:16:08;;;;;;;;;;;;;;;;;;5079055;28;19972;-77
2022/04/29 11:19:06;;;;;;;;;;;;;;;;;;5074029;28;19924;-78
2022/04/29 11:24:42;;;;;;;;;;;;;;;;;;5056796;28;19923;-78
2022/04/29 11:27:08;;;;;;;;;;;;;;;;;;5076385;28;19960;-78
2022/04/29 11:29:46;;;;;;;;;;;;;;;;;;5082451;28;19954;-79
2022/04/29 11:32:24;;;;;;;;;;;;;;;;;;5084937;28;19920;-78
2022/04/29 11:34:53;;;;;;;;;;;;;;;;;;5091450;28;19920;-78
2022/04/29 11:37:25;;;;;;;;;;;;;;;;;;5090519;28;19996;-78
2022/04/29 11:39:51;;;;;;;;;;;;;;;;;;5093400;28;19950;-79
2022/04/29 11:42:17;;;;;;;;;;;;;;;;;;5080882;28;20286;-78
2022/04/29 11:44:43;;;;;;;;;;;;;;;;;;5098180;28;19920;-78
2022/04/29 11:47:08;;;;;;;;;;;;;;;;;;5101946;28;19926;-78
2022/04/29 11:49:36;;;;;;;;;;;;;;;;;;5102742;28;19916;-78
2022/04/29 11:52:18;;;;;;;;;;;;;;;;;;5103969;28;20243;-78
2022/04/29 11:55:03;;;;;;;;;;;;;;;;;;5103779;28;20294;-79
2022/04/29 11:57:30;;;;;;;;;;;;;;;;;;5102236;28;19920;-78
2022/04/29 11:59:55;;;;;;;;;;;;;;;;;;5100202;28;19916;-78
2022/04/29 12:02:23;;;;;;;;;;;;;;;;;;5100639;28;19920;-78
2022/04/29 12:04:56;;;;;;;;;;;;;;;;;;5104625;28;19963;-80
2022/04/29 12:07:25;;;;;;;;;;;;;;;;;;5102703;28;20350;-79
2022/04/29 12:09:52;;;;;;;;;;;;;;;;;;5100021;28;19965;-79
2022/04/29 12:12:25;;;;;;;;;;;;;;;;;;5098690;28;19916;-78
2022/04/29 12:14:50;;;;;;;;;;;;;;;;;;5099263;28;19916;-78
2022/04/29 12:17:16;;;;;;;;;;;;;;;;;;5098579;28;19969;-78
2022/04/29 12:19:42;;;;;;;;;;;;;;;;;;5098752;28;19916;-78
2022/04/29 12:22:09;;;;;;;;;;;;;;;;;;5099533;28;19922;-78
2022/04/29 12:24:42;;;;;;;;;;;;;;;;;;5100422;28;19916;-78
2022/04/29 12:27:08;;;;;;;;;;;;;;;;;;5082270;28;19920;-78
2022/04/29 12:29:34;;;;;;;;;;;;;;;;;;5099491;28;20259;-78
2022/04/29 12:35:06;;;;;;;;;;;;;;;;;;5085034;28;19986;-78
2022/04/29 12:37:32;;;;;;;;;;;;;;;;;;5076822;28;19916;-78
2022/04/29 12:40:04;;;;;;;;;;;;;;;;;;5077342;28;19939;-78
2022/04/29 12:42:30;;;;;;;;;;;;;;;;;;5077343;28;19938;-78
2022/04/29 12:45:05;;;;;;;;;;;;;;;;;;5078388;28;19962;-78
2022/04/29 12:47:35;;;;;;;;;;;;;;;;;;5076613;28;19927;-78
2022/04/29 12:50:16;;;;;;;;;;;;;;;;;;5078510;28;19960;-78
2022/04/29 12:52:53;;;;;;;;;;;;;;;;;;5078437;28;19920;-78
2022/04/29 12:55:18;;;;;;;;;;;;;;;;;;5078720;28;20007;-79
2022/04/29 12:57:44;;;;;;;;;;;;;;;;;;5079664;28;19963;-78
2022/04/29 13:00:10;;;;;;;;;;;;;;;;;;5079140;28;20323;-78
2022/04/29 13:02:35;;;;;;;;;;;;;;;;;;5095663;28;20007;-78
2022/04/29 13:05:00;;;;;;;;;;;;;;;;;;5097042;28;20354;-78
2022/04/29 13:07:32;;;;;;;;;;;;;;;;;;5098164;28;19924;-78
2022/04/29 13:09:57;;;;;;;;;;;;;;;;;;5098261;28;19916;-78
2022/04/29 13:12:23;;;;;;;;;;;;;;;;;;5098342;28;19949;-78
2022/04/29 13:15:01;;;;;;;;;;;;;;;;;;5091788;28;20435;-78
2022/04/29 13:17:26;;;;;;;;;;;;;;;;;;5077385;28;19916;-78
2022/04/29 13:19:51;;;;;;;;;;;;;;;;;;5081121;28;19916;-79
2022/04/29 13:22:18;;;;;;;;;;;;;;;;;;5099425;28;19923;-78
2022/04/29 13:24:44;;;;;;;;;;;;;;;;;;5097713;28;20275;-78
2022/04/29 13:27:09;;;;;;;;;;;;;;;;;;5094664;28;19927;-78
2022/04/29 13:29:35;;;;;;;;;;;;;;;;;;5096963;28;19916;-78
2022/04/29 13:32:00;;;;;;;;;;;;;;;;;;5095790;28;19916;-79
2022/04/29 13:34:25;;;;;;;;;;;;;;;;;;5099208;28;20366;-79
2022/04/29 13:36:51;;;;;;;;;;;;;;;;;;5099148;28;19984;-78
2022/04/29 13:39:16;;;;;;;;;;;;;;;;;;5098929;28;20332;-79
2022/04/29 13:41:54;;;;;;;;;;;;;;;;;;5092978;28;19920;-78
2022/04/29 13:44:19;;;;;;;;;;;;;;;;;;5096094;28;19951;-77
2022/04/29 13:46:45;;;;;;;;;;;;;;;;;;5094317;28;20396;-77
2022/04/29 13:49:10;;;;;;;;;;;;;;;;;;5094999;28;19951;-79
2022/04/29 13:51:35;;;;;;;;;;;;;;;;;;5094263;28;19915;-77
2022/04/29 13:54:00;;;;;;;;;;;;;;;;;;5094147;28;19951;-77
2022/04/29 13:56:26;;;;;;;;;;;;;;;;;;5094436;28;19923;-78
2022/04/29 13:58:51;;;;;;;;;;;;;;;;;;5087309;28;20077;-78
2022/04/29 14:01:17;;;;;;;;;;;;;;;;;;5096885;28;19915;-79
2022/04/29 14:03:43;;;;;;;;;;;;;;;;;;5085849;28;19917;-79
2022/04/29 14:06:08;;;;;;;;;;;;;;;;;;5073892;28;19987;-78
2022/04/29 14:08:34;;;;;;;;;;;;;;;;;;5073484;28;19931;-77
2022/04/29 14:11:00;;;;;;;;;;;;;;;;;;5074871;28;19916;-77
2022/04/29 14:13:25;;;;;;;;;;;;;;;;;;5081308;28;20036;-76
2022/04/29 14:15:50;;;;;;;;;;;;;;;;;;5083660;28;19917;-77
2022/04/29 14:18:16;;;;;;;;;;;;;;;;;;5080833;28;19995;-77
2022/04/29 14:20:41;;;;;;;;;;;;;;;;;;5084059;28;19922;-77
2022/04/29 14:23:07;;;;;;;;;;;;;;;;;;5083377;28;19960;-77
2022/04/29 14:25:32;;;;;;;;;;;;;;;;;;5082005;28;19927;-78
2022/04/29 14:27:59;;;;;;;;;;;;;;;;;;5087621;28;19969;-77
2022/04/29 14:30:24;;;;;;;;;;;;;;;;;;5094007;28;20397;-78
2022/04/29 14:32:50;;;;;;;;;;;;;;;;;;5092091;28;19955;-78
2022/04/29 14:35:15;;;;;;;;;;;;;;;;;;5091820;28;19942;-77
2022/04/29 14:37:41;;;;;;;;;;;;;;;;;;5092435;28;20030;-77
2022/04/29 14:40:07;;;;;;;;;;;;;;;;;;5092687;28;20512;-78
2022/04/29 14:42:33;;;;;;;;;;;;;;;;;;5093590;28;20010;-76
2022/04/29 14:44:58;;;;;;;;;;;;;;;;;;5093066;28;19954;-75
2022/04/29 14:47:24;;;;;;;;;;;;;;;;;;5092913;28;19920;-77
2022/04/29 14:49:49;;;;;;;;;;;;;;;;;;5093530;28;19927;-77
2022/04/29 14:52:15;;;;;;;;;;;;;;;;;;5093579;28;19916;-78
2022/04/29 14:54:41;;;;;;;;;;;;;;;;;;5094144;28;19920;-76
2022/04/29 14:57:08;;;;;;;;;;;;;;;;;;5096273;28;20011;-77
2022/04/29 14:59:33;;;;;;;;;;;;;;;;;;5078788;28;19947;-77
2022/04/29 15:01:59;;;;;;;;;;;;;;;;;;5094981;28;20404;-77
2022/04/29 15:04:25;;;;;;;;;;;;;;;;;;5095513;28;19915;-76
2022/04/29 15:06:50;;;;;;;;;;;;;;;;;;5096722;28;19920;-77
2022/04/29 15:17:27;;;;;;;;;;;;;;;;;;5096560;28;19966;-77
2022/04/29 15:19:53;;;;;;;;;;;;;;;;;;5094396;28;19955;-76
2022/04/29 15:22:20;;;;;;;;;;;;;;;;;;5096846;28;20007;-76
2022/04/29 15:24:45;;;;;;;;;;;;;;;;;;5095453;28;19916;-76
2022/04/29 15:27:10;;;;;;;;;;;;;;;;;;5096536;28;19916;-76
2022/04/29 15:29:36;;;;;;;;;;;;;;;;;;5096682;28;19920;-75
2022/04/29 15:32:01;;;;;;;;;;;;;;;;;;5095685;28;19916;-76
2022/04/29 15:34:30;;;;;;;;;;;;;;;;;;5095081;28;19916;-75
2022/04/29 15:36:56;;;;;;;;;;;;;;;;;;5096505;28;19969;-76
2022/04/29 15:39:21;;;;;;;;;;;;;;;;;;5096494;28;19916;-77
2022/04/29 15:41:48;;;;;;;;;;;;;;;;;;5090579;28;19923;-76
2022/04/29 15:44:14;;;;;;;;;;;;;;;;;;5076398;28;19924;-77
2022/04/29 15:46:39;;;;;;;;;;;;;;;;;;5076081;28;19924;-75
2022/04/29 15:49:05;;;;;;;;;;;;;;;;;;5075912;28;19959;-76
2022/04/29 15:51:30;;;;;;;;;;;;;;;;;;5076192;28;20377;-76
2022/04/29 15:53:55;;;;;;;;;;;;;;;;;;5075290;28;20282;-77
2022/04/29 15:56:23;;;;;;;;;;;;;;;;;;5075980;28;19923;-77
2022/04/29 15:58:49;;;;;;;;;;;;;;;;;;5077325;28;19917;-76
2022/04/29 16:01:14;;;;;;;;;;;;;;;;;;5094906;28;19938;-76
2022/04/29 16:03:41;;;;;;;;;;;;;;;;;;5096236;28;19923;-77
2022/04/29 16:06:06;;;;;;;;;;;;;;;;;;5095317;28;19967;-77
2022/04/29 16:08:31;;;;;;;;;;;;;;;;;;5094586;28;19916;-76
2022/04/29 16:10:57;;;;;;;;;;;;;;;;;;5096019;28;19915;-76
2022/04/29 16:13:23;;;;;;;;;;;;;;;;;;5095951;28;19916;-75
2022/04/29 16:15:48;;;;;;;;;;;;;;;;;;5094882;28;20286;-75
2022/04/29 16:20:57;;;;;;;;;;;;;;;;;;5094538;28;20328;-75
2022/04/29 16:26:07;;;;;;;;;;;;;;;;;;5083165;28;20361;-79
2022/04/29 16:28:37;;;;;;;;;;;;;;;;;;5082389;28;19920;-78
2022/04/29 16:31:02;;;;;;;;;;;;;;;;;;5077663;28;20374;-76
2022/04/29 16:33:27;;;;;;;;;;;;;;;;;;5094739;28;19924;-77
2022/04/29 16:35:53;;;;;;;;;;;;;;;;;;5092099;28;19978;-76
2022/04/29 16:38:18;;;;;;;;;;;;;;;;;;5094810;28;20485;-75
2022/04/29 16:40:44;;;;;;;;;;;;;;;;;;5076764;28;20333;-75
2022/04/29 16:43:10;;;;;;;;;;;;;;;;;;5074965;28;19938;-77
2022/04/29 16:45:36;;;;;;;;;;;;;;;;;;5077870;28;20003;-76
2022/04/29 16:48:02;;;;;;;;;;;;;;;;;;5078111;28;20006;-77
2022/04/29 16:50:28;;;;;;;;;;;;;;;;;;5081315;28;19916;-77
2022/04/29 16:52:53;;;;;;;;;;;;;;;;;;5082484;28;19939;-77
2022/04/29 16:55:19;;;;;;;;;;;;;;;;;;5087810;28;19950;-77
2022/04/29 17:00:29;;;;;;;;;;;;;;;;;;5085947;28;20496;-77
2022/04/29 17:02:56;;;;;;;;;;;;;;;;;;5082020;28;19916;-80
2022/04/29 17:05:23;;;;;;;;;;;;;;;;;;5075026;28;19925;-77
2022/04/29 17:07:49;;;;;;;;;;;;;;;;;;5074561;28;19921;-75
2022/04/29 17:10:14;;;;;;;;;;;;;;;;;;5074469;28;19916;-75
2022/04/29 17:12:40;;;;;;;;;;;;;;;;;;5074289;28;20294;-74
2022/04/29 17:15:06;;;;;;;;;;;;;;;;;;5074292;28;19921;-74
2022/04/29 17:17:31;;;;;;;;;;;;;;;;;;5055223;28;19962;-74
2022/04/29 17:19:59;;;;;;;;;;;;;;;;;;5072834;28;20440;-75
2022/04/29 17:22:26;;;;;;;;;;;;;;;;;;5074546;28;19916;-75
2022/04/29 17:24:51;;;;;;;;;;;;;;;;;;5073835;28;19916;-76
2022/04/29 17:27:17;;;;;;;;;;;;;;;;;;5073686;28;19921;-75
2022/04/29 17:29:42;;;;;;;;;;;;;;;;;;5073947;28;19923;-76
2022/04/29 17:32:08;;;;;;;;;;;;;;;;;;5083516;28;20002;-75
2022/04/29 17:34:34;;;;;;;;;;;;;;;;;;5091779;28;19923;-76
2022/04/29 17:37:01;;;;;;;;;;;;;;;;;;5094094;28;19920;-77
2022/04/29 17:42:23;;;;;;;;;;;;;;;;;;5093641;28;19989;-77
2022/04/29 17:44:48;;;;;;;;;;;;;;;;;;5094743;28;19922;-77
2022/04/29 17:47:14;;;;;;;;;;;;;;;;;;5095683;28;19920;-77
2022/04/29 17:49:39;;;;;;;;;;;;;;;;;;5093493;28;19919;-76
2022/04/29 17:52:05;;;;;;;;;;;;;;;;;;5081659;28;19916;-77
2022/04/29 17:54:34;;;;;;;;;;;;;;;;;;5079050;28;19920;-77
2022/04/29 17:57:00;;;;;;;;;;;;;;;;;;5083793;28;20011;-77